sensor_id;sensor_type;location;lat;lon;timestamp;temperature;humidity
34877;DHT22;21086;44.780;17.194;2023-05-07T00:00:05;14.70;99.90
34877;DHT22;21086;44.780;17.194;2023-05-07T00:02:37;14.60;99.90
34877;DHT22;21086;44.780;17.194;2023-05-07T00:05:05;14.80;99.90
34877;DHT22;21086;44.780;17.194;2023-05-07T00:07:32;14.50;99.90
34877;DHT22;21086;44.780;17.194;2023-05-07T00:09:59;14.40;99.90
34877;DHT22;21086;44.780;17.194;2023-05-07T00:12:26;14.40;99.90
34877;DHT22;21086;44.780;17.194;2023-05-07T00:14:53;14.40;99.90
34877;DHT22;21086;44.780;17.194;2023-05-07T00:17:20;14.20;99.90
34877;DHT22;21086;44.780;17.194;2023-05-07T00:19:47;14.30;99.90
34877;DHT22;21086;44.780;17.194;2023-05-07T00:22:14;14.50;99.90
34877;DHT22;21086;44.780;17.194;2023-05-07T00:24:41;14.40;99.90
34877;DHT22;21086;44.780;17.194;2023-05-07T00:27:08;14.40;99.90
34877;DHT22;21086;44.780;17.194;2023-05-07T00:29:35;14.30;99.90
34877;DHT22;21086;44.780;17.194;2023-05-07T00:32:03;14.30;99.90
34877;DHT22;21086;44.780;17.194;2023-05-07T00:34:30;14.50;99.90
34877;DHT22;21086;44.780;17.194;2023-05-07T00:36:57;14.40;99.90
34877;DHT22;21086;44.780;17.194;2023-05-07T00:39:24;14.50;99.90
34877;DHT22;21086;44.780;17.194;2023-05-07T00:41:51;14.90;99.90
34877;DHT22;21086;44.780;17.194;2023-05-07T00:44:19;15.00;99.90
34877;DHT22;21086;44.780;17.194;2023-05-07T00:46:45;14.80;99.90
34877;DHT22;21086;44.780;17.194;2023-05-07T00:49:16;14.70;99.90
34877;DHT22;21086;44.780;17.194;2023-05-07T00:51:44;14.70;99.90
34877;DHT22;21086;44.780;17.194;2023-05-07T00:54:11;14.60;99.90
34877;DHT22;21086;44.780;17.194;2023-05-07T00:56:39;14.40;99.90
34877;DHT22;21086;44.780;17.194;2023-05-07T00:59:06;14.20;99.90
34877;DHT22;21086;44.780;17.194;2023-05-07T01:01:33;14.10;99.90
34877;DHT22;21086;44.780;17.194;2023-05-07T01:04:01;14.10;99.90
34877;DHT22;21086;44.780;17.194;2023-05-07T01:06:29;14.00;99.90
34877;DHT22;21086;44.780;17.194;2023-05-07T01:08:59;14.00;99.90
34877;DHT22;21086;44.780;17.194;2023-05-07T01:11:26;14.10;99.90
34877;DHT22;21086;44.780;17.194;2023-05-07T01:13:53;13.90;99.90
34877;DHT22;21086;44.780;17.194;2023-05-07T01:16:20;13.90;99.90
34877;DHT22;21086;44.780;17.194;2023-05-07T01:18:48;14.10;99.90
34877;DHT22;21086;44.780;17.194;2023-05-07T01:21:16;14.10;99.90
34877;DHT22;21086;44.780;17.194;2023-05-07T01:23:44;14.20;99.90
34877;DHT22;21086;44.780;17.194;2023-05-07T01:26:12;14.20;99.90
34877;DHT22;21086;44.780;17.194;2023-05-07T01:28:39;14.00;99.90
34877;DHT22;21086;44.780;17.194;2023-05-07T01:31:06;14.00;99.90
34877;DHT22;21086;44.780;17.194;2023-05-07T01:33:36;14.00;99.90
34877;DHT22;21086;44.780;17.194;2023-05-07T01:36:06;13.80;99.90
34877;DHT22;21086;44.780;17.194;2023-05-07T01:38:36;13.80;99.90
34877;DHT22;21086;44.780;17.194;2023-05-07T01:41:03;13.70;99.90
34877;DHT22;21086;44.780;17.194;2023-05-07T01:43:31;13.70;99.90
34877;DHT22;21086;44.780;17.194;2023-05-07T01:45:59;13.80;99.90
34877;DHT22;21086;44.780;17.194;2023-05-07T01:48:27;13.70;99.90
34877;DHT22;21086;44.780;17.194;2023-05-07T01:50:55;13.80;99.90
34877;DHT22;21086;44.780;17.194;2023-05-07T01:53:22;13.70;99.90
34877;DHT22;21086;44.780;17.194;2023-05-07T01:55:49;13.80;99.90
34877;DHT22;21086;44.780;17.194;2023-05-07T01:58:16;13.70;99.90
34877;DHT22;21086;44.780;17.194;2023-05-07T02:00:43;13.60;99.90
34877;DHT22;21086;44.780;17.194;2023-05-07T02:03:10;13.50;99.90
34877;DHT22;21086;44.780;17.194;2023-05-07T02:05:37;13.50;99.90
34877;DHT22;21086;44.780;17.194;2023-05-07T02:08:04;13.40;99.90
34877;DHT22;21086;44.780;17.194;2023-05-07T02:10:31;13.50;99.90
34877;DHT22;21086;44.780;17.194;2023-05-07T02:12:58;13.40;99.90
34877;DHT22;21086;44.780;17.194;2023-05-07T02:15:28;13.40;99.90
34877;DHT22;21086;44.780;17.194;2023-05-07T02:18:08;13.40;99.90
34877;DHT22;21086;44.780;17.194;2023-05-07T02:20:35;13.20;99.90
34877;DHT22;21086;44.780;17.194;2023-05-07T02:23:02;13.20;99.90
34877;DHT22;21086;44.780;17.194;2023-05-07T02:25:30;13.00;99.90
34877;DHT22;21086;44.780;17.194;2023-05-07T02:27:57;12.90;99.90
34877;DHT22;21086;44.780;17.194;2023-05-07T02:30:25;12.90;99.90
34877;DHT22;21086;44.780;17.194;2023-05-07T02:32:52;13.00;99.90
34877;DHT22;21086;44.780;17.194;2023-05-07T02:35:19;12.90;99.90
34877;DHT22;21086;44.780;17.194;2023-05-07T02:37:46;13.00;99.90
34877;DHT22;21086;44.780;17.194;2023-05-07T02:40:13;13.10;99.90
34877;DHT22;21086;44.780;17.194;2023-05-07T02:42:41;13.10;99.90
34877;DHT22;21086;44.780;17.194;2023-05-07T02:45:08;13.10;99.90
34877;DHT22;21086;44.780;17.194;2023-05-07T02:47:35;13.00;99.90
34877;DHT22;21086;44.780;17.194;2023-05-07T02:50:03;13.00;99.90
34877;DHT22;21086;44.780;17.194;2023-05-07T02:52:30;12.90;99.90
34877;DHT22;21086;44.780;17.194;2023-05-07T02:54:57;12.90;99.90
34877;DHT22;21086;44.780;17.194;2023-05-07T02:57:24;12.70;99.90
34877;DHT22;21086;44.780;17.194;2023-05-07T02:59:51;12.70;99.90
34877;DHT22;21086;44.780;17.194;2023-05-07T03:02:18;12.70;99.90
34877;DHT22;21086;44.780;17.194;2023-05-07T03:04:45;12.70;99.90
34877;DHT22;21086;44.780;17.194;2023-05-07T03:07:12;12.70;99.90
34877;DHT22;21086;44.780;17.194;2023-05-07T03:09:39;12.60;99.90
34877;DHT22;21086;44.780;17.194;2023-05-07T03:12:06;12.60;99.90
34877;DHT22;21086;44.780;17.194;2023-05-07T03:14:33;12.60;99.90
34877;DHT22;21086;44.780;17.194;2023-05-07T03:17:00;12.70;99.90
34877;DHT22;21086;44.780;17.194;2023-05-07T03:19:27;12.70;99.90
34877;DHT22;21086;44.780;17.194;2023-05-07T03:21:54;12.70;99.90
34877;DHT22;21086;44.780;17.194;2023-05-07T03:24:22;12.60;99.90
34877;DHT22;21086;44.780;17.194;2023-05-07T03:26:49;12.50;99.90
34877;DHT22;21086;44.780;17.194;2023-05-07T03:29:16;12.50;99.90
34877;DHT22;21086;44.780;17.194;2023-05-07T03:31:43;12.40;99.90
34877;DHT22;21086;44.780;17.194;2023-05-07T03:34:10;12.30;99.90
34877;DHT22;21086;44.780;17.194;2023-05-07T03:36:37;12.30;99.90
34877;DHT22;21086;44.780;17.194;2023-05-07T03:39:04;12.40;99.90
34877;DHT22;21086;44.780;17.194;2023-05-07T03:41:32;12.40;99.90
34877;DHT22;21086;44.780;17.194;2023-05-07T03:43:59;12.40;99.90
34877;DHT22;21086;44.780;17.194;2023-05-07T03:46:26;12.40;99.90
34877;DHT22;21086;44.780;17.194;2023-05-07T03:48:55;12.30;99.90
34877;DHT22;21086;44.780;17.194;2023-05-07T03:51:22;12.40;99.90
34877;DHT22;21086;44.780;17.194;2023-05-07T03:53:49;12.60;99.90
34877;DHT22;21086;44.780;17.194;2023-05-07T03:56:19;12.70;99.90
34877;DHT22;21086;44.780;17.194;2023-05-07T03:58:47;12.70;99.90
34877;DHT22;21086;44.780;17.194;2023-05-07T04:01:14;12.70;99.90
34877;DHT22;21086;44.780;17.194;2023-05-07T04:03:41;12.70;99.90
34877;DHT22;21086;44.780;17.194;2023-05-07T04:06:08;12.80;99.90
34877;DHT22;21086;44.780;17.194;2023-05-07T04:08:35;12.80;99.90
34877;DHT22;21086;44.780;17.194;2023-05-07T04:11:02;12.70;99.90
34877;DHT22;21086;44.780;17.194;2023-05-07T04:13:30;12.70;99.90
34877;DHT22;21086;44.780;17.194;2023-05-07T04:15:57;12.80;99.90
34877;DHT22;21086;44.780;17.194;2023-05-07T04:18:24;12.80;99.90
34877;DHT22;21086;44.780;17.194;2023-05-07T04:20:51;12.90;99.90
34877;DHT22;21086;44.780;17.194;2023-05-07T04:23:18;13.00;99.90
34877;DHT22;21086;44.780;17.194;2023-05-07T04:25:45;13.10;99.90
34877;DHT22;21086;44.780;17.194;2023-05-07T04:28:12;13.20;99.90
34877;DHT22;21086;44.780;17.194;2023-05-07T04:30:39;13.30;99.90
34877;DHT22;21086;44.780;17.194;2023-05-07T04:33:08;13.40;99.90
34877;DHT22;21086;44.780;17.194;2023-05-07T04:35:35;13.50;99.90
34877;DHT22;21086;44.780;17.194;2023-05-07T04:38:02;13.60;99.90
34877;DHT22;21086;44.780;17.194;2023-05-07T04:40:29;13.80;99.90
34877;DHT22;21086;44.780;17.194;2023-05-07T04:42:56;13.80;99.90
34877;DHT22;21086;44.780;17.194;2023-05-07T04:45:23;13.80;99.90
34877;DHT22;21086;44.780;17.194;2023-05-07T04:47:50;13.80;99.90
34877;DHT22;21086;44.780;17.194;2023-05-07T04:50:17;13.90;99.90
34877;DHT22;21086;44.780;17.194;2023-05-07T04:52:46;14.00;99.90
34877;DHT22;21086;44.780;17.194;2023-05-07T04:55:13;14.10;99.90
34877;DHT22;21086;44.780;17.194;2023-05-07T04:57:40;14.20;99.90
34877;DHT22;21086;44.780;17.194;2023-05-07T05:00:08;14.30;99.90
34877;DHT22;21086;44.780;17.194;2023-05-07T05:02:36;14.50;99.90
34877;DHT22;21086;44.780;17.194;2023-05-07T05:05:03;14.50;99.90
34877;DHT22;21086;44.780;17.194;2023-05-07T05:07:31;14.60;99.90
34877;DHT22;21086;44.780;17.194;2023-05-07T05:09:58;14.60;99.90
34877;DHT22;21086;44.780;17.194;2023-05-07T05:12:25;14.70;99.90
34877;DHT22;21086;44.780;17.194;2023-05-07T05:14:52;14.80;99.90
34877;DHT22;21086;44.780;17.194;2023-05-07T05:17:18;14.90;99.90
34877;DHT22;21086;44.780;17.194;2023-05-07T05:19:45;15.00;99.90
34877;DHT22;21086;44.780;17.194;2023-05-07T05:22:12;15.20;99.90
34877;DHT22;21086;44.780;17.194;2023-05-07T05:24:39;15.30;99.90
34877;DHT22;21086;44.780;17.194;2023-05-07T05:27:06;15.40;99.90
34877;DHT22;21086;44.780;17.194;2023-05-07T05:29:33;15.60;99.90
34877;DHT22;21086;44.780;17.194;2023-05-07T05:32:00;15.60;99.90
34877;DHT22;21086;44.780;17.194;2023-05-07T05:34:27;15.70;99.90
34877;DHT22;21086;44.780;17.194;2023-05-07T05:36:54;15.80;99.90
34877;DHT22;21086;44.780;17.194;2023-05-07T05:39:21;15.90;99.90
34877;DHT22;21086;44.780;17.194;2023-05-07T05:41:50;16.00;99.90
34877;DHT22;21086;44.780;17.194;2023-05-07T05:44:17;16.10;99.90
34877;DHT22;21086;44.780;17.194;2023-05-07T05:46:44;16.20;99.90
34877;DHT22;21086;44.780;17.194;2023-05-07T05:49:11;16.40;99.90
34877;DHT22;21086;44.780;17.194;2023-05-07T05:51:38;16.50;99.90
34877;DHT22;21086;44.780;17.194;2023-05-07T05:54:04;16.70;99.90
34877;DHT22;21086;44.780;17.194;2023-05-07T05:56:32;16.80;99.90
34877;DHT22;21086;44.780;17.194;2023-05-07T05:58:59;16.90;99.90
34877;DHT22;21086;44.780;17.194;2023-05-07T06:01:26;17.00;99.90
34877;DHT22;21086;44.780;17.194;2023-05-07T06:03:53;17.10;99.90
34877;DHT22;21086;44.780;17.194;2023-05-07T06:06:21;17.20;99.90
34877;DHT22;21086;44.780;17.194;2023-05-07T06:08:48;17.40;99.90
34877;DHT22;21086;44.780;17.194;2023-05-07T06:11:15;17.50;99.90
34877;DHT22;21086;44.780;17.194;2023-05-07T06:13:42;17.60;99.90
34877;DHT22;21086;44.780;17.194;2023-05-07T06:16:09;17.70;99.90
34877;DHT22;21086;44.780;17.194;2023-05-07T06:18:36;17.70;99.90
34877;DHT22;21086;44.780;17.194;2023-05-07T06:21:03;17.60;99.90
34877;DHT22;21086;44.780;17.194;2023-05-07T06:23:30;17.60;99.90
34877;DHT22;21086;44.780;17.194;2023-05-07T06:25:57;17.60;99.90
34877;DHT22;21086;44.780;17.194;2023-05-07T06:28:24;17.60;99.90
34877;DHT22;21086;44.780;17.194;2023-05-07T06:30:51;17.70;99.90
34877;DHT22;21086;44.780;17.194;2023-05-07T06:33:18;17.70;99.90
34877;DHT22;21086;44.780;17.194;2023-05-07T06:35:47;17.90;99.90
34877;DHT22;21086;44.780;17.194;2023-05-07T06:38:14;18.00;99.90
34877;DHT22;21086;44.780;17.194;2023-05-07T06:40:41;18.10;99.90
34877;DHT22;21086;44.780;17.194;2023-05-07T06:43:08;18.30;99.90
34877;DHT22;21086;44.780;17.194;2023-05-07T06:45:35;18.30;99.90
34877;DHT22;21086;44.780;17.194;2023-05-07T06:48:02;18.40;99.90
34877;DHT22;21086;44.780;17.194;2023-05-07T06:50:29;18.50;99.90
34877;DHT22;21086;44.780;17.194;2023-05-07T06:52:56;18.60;99.90
34877;DHT22;21086;44.780;17.194;2023-05-07T06:55:23;18.70;99.90
34877;DHT22;21086;44.780;17.194;2023-05-07T06:57:50;18.90;99.90
34877;DHT22;21086;44.780;17.194;2023-05-07T07:00:17;19.00;99.90
34877;DHT22;21086;44.780;17.194;2023-05-07T07:02:44;19.10;99.90
34877;DHT22;21086;44.780;17.194;2023-05-07T07:05:11;19.20;99.90
34877;DHT22;21086;44.780;17.194;2023-05-07T07:07:38;19.40;99.90
34877;DHT22;21086;44.780;17.194;2023-05-07T07:10:05;19.50;99.90
34877;DHT22;21086;44.780;17.194;2023-05-07T07:12:32;19.60;99.90
34877;DHT22;21086;44.780;17.194;2023-05-07T07:14:59;19.80;99.90
34877;DHT22;21086;44.780;17.194;2023-05-07T07:17:26;20.00;99.90
34877;DHT22;21086;44.780;17.194;2023-05-07T07:19:53;20.10;99.90
34877;DHT22;21086;44.780;17.194;2023-05-07T07:22:20;20.30;99.90
34877;DHT22;21086;44.780;17.194;2023-05-07T07:24:47;20.40;99.90
34877;DHT22;21086;44.780;17.194;2023-05-07T07:27:14;20.60;99.90
34877;DHT22;21086;44.780;17.194;2023-05-07T07:29:41;20.50;99.90
34877;DHT22;21086;44.780;17.194;2023-05-07T07:32:08;20.50;99.90
34877;DHT22;21086;44.780;17.194;2023-05-07T07:34:35;20.60;99.90
34877;DHT22;21086;44.780;17.194;2023-05-07T07:37:02;20.80;99.90
34877;DHT22;21086;44.780;17.194;2023-05-07T07:39:33;20.70;99.90
34877;DHT22;21086;44.780;17.194;2023-05-07T07:42:00;20.80;99.90
34877;DHT22;21086;44.780;17.194;2023-05-07T07:44:28;20.90;99.90
34877;DHT22;21086;44.780;17.194;2023-05-07T07:46:55;20.90;99.90
34877;DHT22;21086;44.780;17.194;2023-05-07T07:49:22;21.10;99.90
34877;DHT22;21086;44.780;17.194;2023-05-07T07:51:49;21.10;99.90
34877;DHT22;21086;44.780;17.194;2023-05-07T07:54:18;21.10;99.90
34877;DHT22;21086;44.780;17.194;2023-05-07T07:56:45;21.20;99.90
34877;DHT22;21086;44.780;17.194;2023-05-07T07:59:11;21.30;99.90
34877;DHT22;21086;44.780;17.194;2023-05-07T08:01:40;21.40;99.90
34877;DHT22;21086;44.780;17.194;2023-05-07T08:04:07;21.50;99.90
34877;DHT22;21086;44.780;17.194;2023-05-07T08:06:34;21.50;99.90
34877;DHT22;21086;44.780;17.194;2023-05-07T08:09:02;21.60;99.90
34877;DHT22;21086;44.780;17.194;2023-05-07T08:11:29;21.80;99.90
34877;DHT22;21086;44.780;17.194;2023-05-07T08:13:56;21.90;99.90
34877;DHT22;21086;44.780;17.194;2023-05-07T08:16:23;22.10;99.90
34877;DHT22;21086;44.780;17.194;2023-05-07T08:18:51;22.20;99.90
34877;DHT22;21086;44.780;17.194;2023-05-07T08:21:18;22.30;99.90
34877;DHT22;21086;44.780;17.194;2023-05-07T08:23:45;22.50;99.90
34877;DHT22;21086;44.780;17.194;2023-05-07T08:26:13;22.50;99.90
34877;DHT22;21086;44.780;17.194;2023-05-07T08:28:40;22.70;99.90
34877;DHT22;21086;44.780;17.194;2023-05-07T08:31:07;22.70;99.90
34877;DHT22;21086;44.780;17.194;2023-05-07T08:33:34;22.80;99.90
34877;DHT22;21086;44.780;17.194;2023-05-07T08:36:01;22.90;99.90
34877;DHT22;21086;44.780;17.194;2023-05-07T08:38:27;22.90;99.90
34877;DHT22;21086;44.780;17.194;2023-05-07T08:40:54;23.00;99.90
34877;DHT22;21086;44.780;17.194;2023-05-07T08:43:21;23.00;99.90
34877;DHT22;21086;44.780;17.194;2023-05-07T08:45:51;23.20;99.90
34877;DHT22;21086;44.780;17.194;2023-05-07T08:48:22;23.30;99.90
34877;DHT22;21086;44.780;17.194;2023-05-07T08:50:52;23.40;99.90
34877;DHT22;21086;44.780;17.194;2023-05-07T08:53:20;23.40;99.90
34877;DHT22;21086;44.780;17.194;2023-05-07T08:55:47;23.40;99.90
34877;DHT22;21086;44.780;17.194;2023-05-07T08:58:15;23.40;99.90
34877;DHT22;21086;44.780;17.194;2023-05-07T09:00:42;23.60;99.90
34877;DHT22;21086;44.780;17.194;2023-05-07T09:03:09;23.70;99.90
34877;DHT22;21086;44.780;17.194;2023-05-07T09:05:39;23.60;99.90
34877;DHT22;21086;44.780;17.194;2023-05-07T09:08:08;23.60;99.90
34877;DHT22;21086;44.780;17.194;2023-05-07T09:10:35;23.70;99.90
34877;DHT22;21086;44.780;17.194;2023-05-07T09:13:02;23.80;99.90
34877;DHT22;21086;44.780;17.194;2023-05-07T09:15:30;23.90;99.90
34877;DHT22;21086;44.780;17.194;2023-05-07T09:18:00;24.00;99.90
34877;DHT22;21086;44.780;17.194;2023-05-07T09:20:30;24.10;99.90
34877;DHT22;21086;44.780;17.194;2023-05-07T09:22:58;24.30;99.90
34877;DHT22;21086;44.780;17.194;2023-05-07T09:25:33;24.30;99.90
34877;DHT22;21086;44.780;17.194;2023-05-07T09:28:01;24.40;99.90
34877;DHT22;21086;44.780;17.194;2023-05-07T09:30:33;24.50;99.90
34877;DHT22;21086;44.780;17.194;2023-05-07T09:33:02;24.70;99.90
34877;DHT22;21086;44.780;17.194;2023-05-07T09:35:30;24.90;99.90
34877;DHT22;21086;44.780;17.194;2023-05-07T09:37:58;25.10;99.90
34877;DHT22;21086;44.780;17.194;2023-05-07T09:40:30;25.20;99.90
34877;DHT22;21086;44.780;17.194;2023-05-07T09:43:09;25.20;99.90
34877;DHT22;21086;44.780;17.194;2023-05-07T09:45:37;25.20;99.90
34877;DHT22;21086;44.780;17.194;2023-05-07T09:48:06;25.30;99.90
34877;DHT22;21086;44.780;17.194;2023-05-07T09:50:42;25.50;99.90
34877;DHT22;21086;44.780;17.194;2023-05-07T09:53:16;25.50;99.90
34877;DHT22;21086;44.780;17.194;2023-05-07T09:55:46;25.70;99.90
34877;DHT22;21086;44.780;17.194;2023-05-07T09:58:15;25.90;99.90
34877;DHT22;21086;44.780;17.194;2023-05-07T10:00:43;26.00;99.90
34877;DHT22;21086;44.780;17.194;2023-05-07T10:03:12;26.10;99.90
34877;DHT22;21086;44.780;17.194;2023-05-07T10:05:40;26.30;99.90
34877;DHT22;21086;44.780;17.194;2023-05-07T10:08:08;26.40;99.90
34877;DHT22;21086;44.780;17.194;2023-05-07T10:10:36;26.40;99.90
34877;DHT22;21086;44.780;17.194;2023-05-07T10:13:05;26.60;99.90
34877;DHT22;21086;44.780;17.194;2023-05-07T10:15:37;26.80;99.90
34877;DHT22;21086;44.780;17.194;2023-05-07T10:18:05;26.90;99.90
34877;DHT22;21086;44.780;17.194;2023-05-07T10:20:34;27.00;99.90
34877;DHT22;21086;44.780;17.194;2023-05-07T10:23:04;27.10;99.90
34877;DHT22;21086;44.780;17.194;2023-05-07T10:25:33;27.20;99.90
34877;DHT22;21086;44.780;17.194;2023-05-07T10:28:06;27.00;99.90
34877;DHT22;21086;44.780;17.194;2023-05-07T10:33:23;27.20;99.90
34877;DHT22;21086;44.780;17.194;2023-05-07T10:35:57;27.50;99.90
34877;DHT22;21086;44.780;17.194;2023-05-07T10:38:25;27.70;99.90
34877;DHT22;21086;44.780;17.194;2023-05-07T10:40:53;27.80;99.90
34877;DHT22;21086;44.780;17.194;2023-05-07T10:43:20;28.00;99.90
34877;DHT22;21086;44.780;17.194;2023-05-07T10:46:24;28.20;99.90
34877;DHT22;21086;44.780;17.194;2023-05-07T10:51:29;28.40;99.90
34877;DHT22;21086;44.780;17.194;2023-05-07T10:56:41;28.30;99.90
34877;DHT22;21086;44.780;17.194;2023-05-07T11:04:22;28.20;99.90
34877;DHT22;21086;44.780;17.194;2023-05-07T11:10:05;28.50;99.90
34877;DHT22;21086;44.780;17.194;2023-05-07T11:15:07;28.70;99.90
34877;DHT22;21086;44.780;17.194;2023-05-07T11:17:52;28.70;99.90
34877;DHT22;21086;44.780;17.194;2023-05-07T11:20:20;28.90;99.90
34877;DHT22;21086;44.780;17.194;2023-05-07T11:22:48;29.10;99.90
34877;DHT22;21086;44.780;17.194;2023-05-07T11:25:18;29.20;99.90
34877;DHT22;21086;44.780;17.194;2023-05-07T11:27:46;29.40;99.90
34877;DHT22;21086;44.780;17.194;2023-05-07T11:30:19;29.70;99.90
34877;DHT22;21086;44.780;17.194;2023-05-07T11:32:47;29.90;99.90
34877;DHT22;21086;44.780;17.194;2023-05-07T11:35:15;30.10;99.90
34877;DHT22;21086;44.780;17.194;2023-05-07T11:37:44;30.30;99.90
34877;DHT22;21086;44.780;17.194;2023-05-07T11:40:12;30.60;99.90
34877;DHT22;21086;44.780;17.194;2023-05-07T11:42:41;30.60;99.90
34877;DHT22;21086;44.780;17.194;2023-05-07T11:45:11;31.00;99.90
34877;DHT22;21086;44.780;17.194;2023-05-07T11:47:38;31.40;99.90
34877;DHT22;21086;44.780;17.194;2023-05-07T11:50:09;31.80;99.90
34877;DHT22;21086;44.780;17.194;2023-05-07T11:52:37;32.30;99.90
34877;DHT22;21086;44.780;17.194;2023-05-07T11:55:07;32.50;99.90
34877;DHT22;21086;44.780;17.194;2023-05-07T11:57:35;33.00;99.90
34877;DHT22;21086;44.780;17.194;2023-05-07T12:00:02;33.30;99.90
34877;DHT22;21086;44.780;17.194;2023-05-07T12:02:31;33.90;99.90
34877;DHT22;21086;44.780;17.194;2023-05-07T12:05:00;34.70;99.90
34877;DHT22;21086;44.780;17.194;2023-05-07T12:07:29;35.20;99.90
34877;DHT22;21086;44.780;17.194;2023-05-07T12:09:56;35.60;99.90
34877;DHT22;21086;44.780;17.194;2023-05-07T12:12:24;36.30;99.90
34877;DHT22;21086;44.780;17.194;2023-05-07T12:14:50;36.90;99.90
34877;DHT22;21086;44.780;17.194;2023-05-07T12:17:18;37.40;99.90
34877;DHT22;21086;44.780;17.194;2023-05-07T12:19:46;37.80;99.90
34877;DHT22;21086;44.780;17.194;2023-05-07T12:22:13;38.40;99.90
34877;DHT22;21086;44.780;17.194;2023-05-07T12:24:48;38.90;99.90
34877;DHT22;21086;44.780;17.194;2023-05-07T12:27:16;38.80;99.90
34877;DHT22;21086;44.780;17.194;2023-05-07T12:29:47;38.90;99.90
34877;DHT22;21086;44.780;17.194;2023-05-07T12:32:19;39.30;99.90
34877;DHT22;21086;44.780;17.194;2023-05-07T12:34:50;40.60;99.90
34877;DHT22;21086;44.780;17.194;2023-05-07T12:37:25;40.60;99.90
34877;DHT22;21086;44.780;17.194;2023-05-07T12:40:10;41.50;99.90
34877;DHT22;21086;44.780;17.194;2023-05-07T12:42:39;42.00;99.90
34877;DHT22;21086;44.780;17.194;2023-05-07T12:45:12;42.20;99.90
34877;DHT22;21086;44.780;17.194;2023-05-07T12:47:44;42.70;99.90
34877;DHT22;21086;44.780;17.194;2023-05-07T12:50:15;42.00;99.90
34877;DHT22;21086;44.780;17.194;2023-05-07T12:52:45;42.00;99.90
34877;DHT22;21086;44.780;17.194;2023-05-07T12:55:16;42.80;99.90
34877;DHT22;21086;44.780;17.194;2023-05-07T12:57:48;42.70;99.90
34877;DHT22;21086;44.780;17.194;2023-05-07T13:00:15;43.50;99.90
34877;DHT22;21086;44.780;17.194;2023-05-07T13:02:44;44.70;99.90
34877;DHT22;21086;44.780;17.194;2023-05-07T13:05:11;45.20;99.90
34877;DHT22;21086;44.780;17.194;2023-05-07T13:07:39;45.70;99.90
34877;DHT22;21086;44.780;17.194;2023-05-07T13:10:08;46.00;99.90
34877;DHT22;21086;44.780;17.194;2023-05-07T13:12:35;46.60;99.90
34877;DHT22;21086;44.780;17.194;2023-05-07T13:15:02;46.70;99.90
34877;DHT22;21086;44.780;17.194;2023-05-07T13:17:29;47.40;99.90
34877;DHT22;21086;44.780;17.194;2023-05-07T13:19:58;47.80;99.90
34877;DHT22;21086;44.780;17.194;2023-05-07T13:22:25;47.80;99.90
34877;DHT22;21086;44.780;17.194;2023-05-07T13:24:52;46.70;99.90
34877;DHT22;21086;44.780;17.194;2023-05-07T13:27:20;46.70;99.90
34877;DHT22;21086;44.780;17.194;2023-05-07T13:29:47;47.60;99.90
34877;DHT22;21086;44.780;17.194;2023-05-07T13:32:14;48.00;99.90
34877;DHT22;21086;44.780;17.194;2023-05-07T13:34:41;49.20;99.90
34877;DHT22;21086;44.780;17.194;2023-05-07T13:37:08;49.30;99.90
34877;DHT22;21086;44.780;17.194;2023-05-07T13:39:37;50.10;99.90
34877;DHT22;21086;44.780;17.194;2023-05-07T13:42:05;49.70;99.90
34877;DHT22;21086;44.780;17.194;2023-05-07T13:44:32;49.00;99.90
34877;DHT22;21086;44.780;17.194;2023-05-07T13:46:59;48.60;99.90
34877;DHT22;21086;44.780;17.194;2023-05-07T13:49:27;48.60;99.90
34877;DHT22;21086;44.780;17.194;2023-05-07T13:51:54;48.40;99.90
34877;DHT22;21086;44.780;17.194;2023-05-07T13:54:21;48.80;99.90
34877;DHT22;21086;44.780;17.194;2023-05-07T13:56:48;49.10;99.90
34877;DHT22;21086;44.780;17.194;2023-05-07T13:59:15;48.60;99.90
34877;DHT22;21086;44.780;17.194;2023-05-07T14:01:42;48.20;99.90
34877;DHT22;21086;44.780;17.194;2023-05-07T14:04:09;47.70;99.90
34877;DHT22;21086;44.780;17.194;2023-05-07T14:06:36;47.30;99.90
34877;DHT22;21086;44.780;17.194;2023-05-07T14:09:03;48.00;99.90
34877;DHT22;21086;44.780;17.194;2023-05-07T14:11:30;47.80;99.90
34877;DHT22;21086;44.780;17.194;2023-05-07T14:13:59;47.30;99.90
34877;DHT22;21086;44.780;17.194;2023-05-07T14:16:26;47.60;99.90
34877;DHT22;21086;44.780;17.194;2023-05-07T14:18:53;47.40;99.90
34877;DHT22;21086;44.780;17.194;2023-05-07T14:21:24;47.50;99.90
34877;DHT22;21086;44.780;17.194;2023-05-07T14:23:50;46.30;99.90
34877;DHT22;21086;44.780;17.194;2023-05-07T14:26:17;45.60;99.90
34877;DHT22;21086;44.780;17.194;2023-05-07T14:28:45;44.60;99.90
34877;DHT22;21086;44.780;17.194;2023-05-07T14:31:13;43.60;99.90
34877;DHT22;21086;44.780;17.194;2023-05-07T14:33:40;43.20;99.90
34877;DHT22;21086;44.780;17.194;2023-05-07T14:36:08;43.60;99.90
34877;DHT22;21086;44.780;17.194;2023-05-07T14:38:35;44.00;99.90
34877;DHT22;21086;44.780;17.194;2023-05-07T14:41:02;43.50;99.90
34877;DHT22;21086;44.780;17.194;2023-05-07T14:43:29;42.90;99.90
34877;DHT22;21086;44.780;17.194;2023-05-07T14:45:57;42.10;99.90
34877;DHT22;21086;44.780;17.194;2023-05-07T14:48:24;41.40;99.90
34877;DHT22;21086;44.780;17.194;2023-05-07T14:50:51;41.00;99.90
34877;DHT22;21086;44.780;17.194;2023-05-07T14:53:18;41.20;99.90
34877;DHT22;21086;44.780;17.194;2023-05-07T14:55:46;41.00;99.90
34877;DHT22;21086;44.780;17.194;2023-05-07T14:58:13;41.10;99.90
34877;DHT22;21086;44.780;17.194;2023-05-07T15:00:40;41.30;99.90
34877;DHT22;21086;44.780;17.194;2023-05-07T15:03:08;40.90;99.90
34877;DHT22;21086;44.780;17.194;2023-05-07T15:05:37;41.80;99.90
34877;DHT22;21086;44.780;17.194;2023-05-07T15:08:04;41.60;99.90
34877;DHT22;21086;44.780;17.194;2023-05-07T15:10:35;41.50;99.90
34877;DHT22;21086;44.780;17.194;2023-05-07T15:13:11;41.80;99.90
34877;DHT22;21086;44.780;17.194;2023-05-07T15:15:42;42.40;99.90
34877;DHT22;21086;44.780;17.194;2023-05-07T15:18:10;42.80;99.90
34877;DHT22;21086;44.780;17.194;2023-05-07T15:20:38;43.10;99.90
34877;DHT22;21086;44.780;17.194;2023-05-07T15:23:06;43.30;99.90
34877;DHT22;21086;44.780;17.194;2023-05-07T15:25:36;43.40;99.90
34877;DHT22;21086;44.780;17.194;2023-05-07T15:28:03;43.10;99.90
34877;DHT22;21086;44.780;17.194;2023-05-07T15:30:30;42.50;99.90
34877;DHT22;21086;44.780;17.194;2023-05-07T15:32:57;42.30;99.90
34877;DHT22;21086;44.780;17.194;2023-05-07T15:35:25;41.00;99.90
34877;DHT22;21086;44.780;17.194;2023-05-07T15:37:52;40.70;99.90